sensor_id;sensor_type;location;lat;lon;timestamp;pressure;altitude;pressure_sealevel;temperature;humidity
47082;BME280;33066;49.296;14.470;2023-11-22T00:00:15;97107.80;;;10.54;34.06
47082;BME280;33066;49.296;14.470;2023-11-22T00:02:41;97107.78;;;10.41;33.98
47082;BME280;33066;49.296;14.470;2023-11-22T00:05:06;97114.36;;;10.19;34.00
47082;BME280;33066;49.296;14.470;2023-11-22T00:07:30;97116.72;;;10.07;34.23
47082;BME280;33066;49.296;14.470;2023-11-22T00:09:56;97116.80;;;9.83;34.23
47082;BME280;33066;49.296;14.470;2023-11-22T00:12:21;97113.95;;;10.00;34.12
47082;BME280;33066;49.296;14.470;2023-11-22T00:14:48;97116.36;;;9.91;33.93
47082;BME280;33066;49.296;14.470;2023-11-22T00:17:12;97117.35;;;10.13;34.06
47082;BME280;33066;49.296;14.470;2023-11-22T00:19:37;97113.50;;;10.02;34.07
47082;BME280;33066;49.296;14.470;2023-11-22T00:22:03;97114.76;;;9.62;34.08
47082;BME280;33066;49.296;14.470;2023-11-22T00:24:28;97113.46;;;9.97;34.13
47082;BME280;33066;49.296;14.470;2023-11-22T00:26:54;97110.17;;;9.63;34.23
47082;BME280;33066;49.296;14.470;2023-11-22T00:29:19;97111.29;;;9.71;34.26
47082;BME280;33066;49.296;14.470;2023-11-22T00:31:44;97116.61;;;9.93;34.22
47082;BME280;33066;49.296;14.470;2023-11-22T00:34:10;97114.64;;;9.61;34.05
47082;BME280;33066;49.296;14.470;2023-11-22T00:36:35;97119.54;;;9.86;34.36
47082;BME280;33066;49.296;14.470;2023-11-22T00:39:00;97123.14;;;9.91;34.22
47082;BME280;33066;49.296;14.470;2023-11-22T00:41:31;97120.87;;;9.87;34.16
47082;BME280;33066;49.296;14.470;2023-11-22T00:43:51;97126.16;;;9.72;34.57
47082;BME280;33066;49.296;14.470;2023-11-22T00:46:16;97125.22;;;9.58;34.58
47082;BME280;33066;49.296;14.470;2023-11-22T00:48:42;97134.20;;;9.34;34.79
47082;BME280;33066;49.296;14.470;2023-11-22T00:51:07;97134.35;;;9.46;35.05
47082;BME280;33066;49.296;14.470;2023-11-22T00:53:32;97136.10;;;9.33;35.21
47082;BME280;33066;49.296;14.470;2023-11-22T00:55:58;97131.61;;;9.55;34.98
47082;BME280;33066;49.296;14.470;2023-11-22T00:58:23;97138.88;;;9.74;34.81
47082;BME280;33066;49.296;14.470;2023-11-22T01:00:49;97147.98;;;9.45;34.74
47082;BME280;33066;49.296;14.470;2023-11-22T01:03:14;97149.77;;;9.38;34.80
47082;BME280;33066;49.296;14.470;2023-11-22T01:05:39;97155.32;;;9.36;34.71
47082;BME280;33066;49.296;14.470;2023-11-22T01:08:05;97153.55;;;9.60;34.80
47082;BME280;33066;49.296;14.470;2023-11-22T01:10:31;97154.02;;;9.73;34.65
47082;BME280;33066;49.296;14.470;2023-11-22T01:12:56;97155.50;;;9.72;34.44
47082;BME280;33066;49.296;14.470;2023-11-22T01:15:22;97155.01;;;9.89;34.49
47082;BME280;33066;49.296;14.470;2023-11-22T01:17:47;97161.68;;;9.37;34.26
47082;BME280;33066;49.296;14.470;2023-11-22T01:20:12;97165.79;;;9.60;34.05
47082;BME280;33066;49.296;14.470;2023-11-22T01:22:39;97165.21;;;9.43;34.23
47082;BME280;33066;49.296;14.470;2023-11-22T01:25:03;97160.33;;;9.42;34.38
47082;BME280;33066;49.296;14.470;2023-11-22T01:27:28;97163.24;;;9.22;34.62
47082;BME280;33066;49.296;14.470;2023-11-22T01:29:55;97167.80;;;9.50;34.86
47082;BME280;33066;49.296;14.470;2023-11-22T01:32:19;97178.06;;;9.14;34.95
47082;BME280;33066;49.296;14.470;2023-11-22T01:34:44;97173.59;;;9.06;35.10
47082;BME280;33066;49.296;14.470;2023-11-22T01:37:10;97185.02;;;9.16;35.29
47082;BME280;33066;49.296;14.470;2023-11-22T01:39:35;97178.80;;;8.92;35.38
47082;BME280;33066;49.296;14.470;2023-11-22T01:42:01;97183.60;;;8.94;35.35
47082;BME280;33066;49.296;14.470;2023-11-22T01:44:27;97185.87;;;9.10;35.27
47082;BME280;33066;49.296;14.470;2023-11-22T01:46:51;97186.65;;;9.08;35.14
47082;BME280;33066;49.296;14.470;2023-11-22T01:49:18;97185.01;;;9.28;34.95
47082;BME280;33066;49.296;14.470;2023-11-22T01:51:42;97187.06;;;9.54;34.62
47082;BME280;33066;49.296;14.470;2023-11-22T01:54:08;97187.56;;;9.45;34.51
47082;BME280;33066;49.296;14.470;2023-11-22T01:56:35;97188.87;;;9.10;34.69
47082;BME280;33066;49.296;14.470;2023-11-22T01:58:59;97196.21;;;8.91;34.77
47082;BME280;33066;49.296;14.470;2023-11-22T02:01:25;97195.50;;;8.73;34.94
47082;BME280;33066;49.296;14.470;2023-11-22T02:03:49;97198.89;;;8.74;35.10
47082;BME280;33066;49.296;14.470;2023-11-22T02:06:16;97206.71;;;8.91;35.06
47082;BME280;33066;49.296;14.470;2023-11-22T02:08:40;97212.91;;;9.20;34.85
47082;BME280;33066;49.296;14.470;2023-11-22T02:11:08;97214.84;;;9.26;35.05
47082;BME280;33066;49.296;14.470;2023-11-22T02:13:31;97217.23;;;9.33;34.72
47082;BME280;33066;49.296;14.470;2023-11-22T02:15:57;97220.69;;;9.32;34.94
47082;BME280;33066;49.296;14.470;2023-11-22T02:18:22;97218.75;;;9.21;34.92
47082;BME280;33066;49.296;14.470;2023-11-22T02:20:47;97223.11;;;9.11;34.64
47082;BME280;33066;49.296;14.470;2023-11-22T02:23:13;97224.68;;;9.03;34.81
47082;BME280;33066;49.296;14.470;2023-11-22T02:25:38;97228.87;;;9.09;34.59
47082;BME280;33066;49.296;14.470;2023-11-22T02:28:04;97227.44;;;8.82;34.81
47082;BME280;33066;49.296;14.470;2023-11-22T02:30:29;97227.60;;;8.89;35.00
47082;BME280;33066;49.296;14.470;2023-11-22T02:32:55;97230.59;;;8.51;34.85
47082;BME280;33066;49.296;14.470;2023-11-22T02:35:20;97233.91;;;8.55;35.18
47082;BME280;33066;49.296;14.470;2023-11-22T02:37:47;97232.08;;;8.53;35.29
47082;BME280;33066;49.296;14.470;2023-11-22T02:40:17;97241.31;;;8.51;35.37
47082;BME280;33066;49.296;14.470;2023-11-22T02:42:36;97248.17;;;8.53;35.56
47082;BME280;33066;49.296;14.470;2023-11-22T02:45:02;97246.00;;;8.63;35.44
47082;BME280;33066;49.296;14.470;2023-11-22T02:47:27;97252.87;;;8.53;35.55
47082;BME280;33066;49.296;14.470;2023-11-22T02:49:53;97252.47;;;8.81;35.29
47082;BME280;33066;49.296;14.470;2023-11-22T02:52:18;97249.85;;;8.91;35.31
47082;BME280;33066;49.296;14.470;2023-11-22T02:54:44;97244.66;;;8.67;35.47
47082;BME280;33066;49.296;14.470;2023-11-22T02:57:09;97254.46;;;8.67;35.78
47082;BME280;33066;49.296;14.470;2023-11-22T02:59:35;97252.57;;;8.81;35.63
47082;BME280;33066;49.296;14.470;2023-11-22T03:02:00;97258.70;;;8.69;35.35
47082;BME280;33066;49.296;14.470;2023-11-22T03:04:26;97261.13;;;8.59;35.18
47082;BME280;33066;49.296;14.470;2023-11-22T03:06:51;97269.08;;;8.59;35.17
47082;BME280;33066;49.296;14.470;2023-11-22T03:09:16;97274.72;;;8.37;35.62
47082;BME280;33066;49.296;14.470;2023-11-22T03:11:43;97279.97;;;8.33;35.82
47082;BME280;33066;49.296;14.470;2023-11-22T03:14:07;97286.81;;;8.34;35.76
47082;BME280;33066;49.296;14.470;2023-11-22T03:16:34;97293.89;;;8.39;35.87
47082;BME280;33066;49.296;14.470;2023-11-22T03:18:58;97293.14;;;8.49;35.78
47082;BME280;33066;49.296;14.470;2023-11-22T03:21:23;97292.08;;;8.47;35.73
47082;BME280;33066;49.296;14.470;2023-11-22T03:23:49;97288.47;;;8.59;35.71
47082;BME280;33066;49.296;14.470;2023-11-22T03:26:14;97288.73;;;8.87;35.64
47082;BME280;33066;49.296;14.470;2023-11-22T03:28:39;97286.31;;;8.65;35.48
47082;BME280;33066;49.296;14.470;2023-11-22T03:31:05;97287.05;;;8.52;35.50
47082;BME280;33066;49.296;14.470;2023-11-22T03:33:30;97286.77;;;9.00;35.42
47082;BME280;33066;49.296;14.470;2023-11-22T03:35:55;97287.82;;;8.72;35.48
47082;BME280;33066;49.296;14.470;2023-11-22T03:38:22;97287.80;;;8.63;35.53
47082;BME280;33066;49.296;14.470;2023-11-22T03:40:46;97290.56;;;8.60;35.66
47082;BME280;33066;49.296;14.470;2023-11-22T03:43:11;97292.25;;;8.65;35.85
47082;BME280;33066;49.296;14.470;2023-11-22T03:45:38;97287.16;;;8.77;35.80
47082;BME280;33066;49.296;14.470;2023-11-22T03:48:03;97291.36;;;8.48;35.25
47082;BME280;33066;49.296;14.470;2023-11-22T03:50:27;97299.65;;;8.56;35.73
47082;BME280;33066;49.296;14.470;2023-11-22T03:52:53;97303.67;;;8.25;35.52
47082;BME280;33066;49.296;14.470;2023-11-22T03:55:18;97305.67;;;8.54;35.72
47082;BME280;33066;49.296;14.470;2023-11-22T03:57:44;97308.79;;;8.51;36.09
47082;BME280;33066;49.296;14.470;2023-11-22T04:00:10;97309.93;;;8.61;35.95
47082;BME280;33066;49.296;14.470;2023-11-22T04:02:35;97312.74;;;8.48;36.11
47082;BME280;33066;49.296;14.470;2023-11-22T04:05:00;97318.60;;;8.43;36.19
47082;BME280;33066;49.296;14.470;2023-11-22T04:07:26;97332.29;;;8.41;36.48
47082;BME280;33066;49.296;14.470;2023-11-22T04:09:51;97340.70;;;8.47;36.44
47082;BME280;33066;49.296;14.470;2023-11-22T04:13:00;97339.93;;;8.93;35.67
47082;BME280;33066;49.296;14.470;2023-11-22T04:15:26;97338.28;;;8.85;35.44
47082;BME280;33066;49.296;14.470;2023-11-22T04:17:52;97339.78;;;8.39;35.16
47082;BME280;33066;49.296;14.470;2023-11-22T04:20:17;97343.69;;;8.54;35.30
47082;BME280;33066;49.296;14.470;2023-11-22T04:22:44;97347.38;;;8.43;34.88
47082;BME280;33066;49.296;14.470;2023-11-22T04:25:08;97353.95;;;8.34;34.74
47082;BME280;33066;49.296;14.470;2023-11-22T04:27:35;97362.71;;;8.35;34.89
47082;BME280;33066;49.296;14.470;2023-11-22T04:29:58;97374.39;;;8.31;34.80
47082;BME280;33066;49.296;14.470;2023-11-22T04:32:24;97374.09;;;8.37;34.77
47082;BME280;33066;49.296;14.470;2023-11-22T04:34:49;97377.80;;;8.32;34.71
47082;BME280;33066;49.296;14.470;2023-11-22T04:37:15;97378.87;;;8.28;34.78
47082;BME280;33066;49.296;14.470;2023-11-22T04:39:40;97378.96;;;8.22;34.78
47082;BME280;33066;49.296;14.470;2023-11-22T04:42:06;97378.10;;;8.32;34.84
47082;BME280;33066;49.296;14.470;2023-11-22T04:44:31;97384.54;;;8.44;34.71
47082;BME280;33066;49.296;14.470;2023-11-22T04:46:57;97393.57;;;8.38;34.51
47082;BME280;33066;49.296;14.470;2023-11-22T04:49:22;97407.13;;;8.49;34.57
47082;BME280;33066;49.296;14.470;2023-11-22T04:51:47;97404.87;;;8.33;34.59
47082;BME280;33066;49.296;14.470;2023-11-22T04:54:13;97411.41;;;8.32;34.61
47082;BME280;33066;49.296;14.470;2023-11-22T04:56:40;97412.06;;;8.22;34.52
47082;BME280;33066;49.296;14.470;2023-11-22T04:59:03;97414.95;;;8.16;34.74
47082;BME280;33066;49.296;14.470;2023-11-22T05:01:33;97417.27;;;8.04;34.89
47082;BME280;33066;49.296;14.470;2023-11-22T05:03:54;97418.40;;;8.11;35.38
47082;BME280;33066;49.296;14.470;2023-11-22T05:06:19;97410.70;;;8.06;35.48
47082;BME280;33066;49.296;14.470;2023-11-22T05:08:45;97402.40;;;8.26;35.93
47082;BME280;33066;49.296;14.470;2023-11-22T05:11:10;97409.89;;;8.01;36.00
47082;BME280;33066;49.296;14.470;2023-11-22T05:13:36;97416.10;;;7.98;36.44
47082;BME280;33066;49.296;14.470;2023-11-22T05:16:03;97412.43;;;7.90;36.38
47082;BME280;33066;49.296;14.470;2023-11-22T05:18:26;97410.21;;;8.07;36.41
47082;BME280;33066;49.296;14.470;2023-11-22T05:20:52;97415.24;;;8.21;36.23
47082;BME280;33066;49.296;14.470;2023-11-22T05:23:17;97430.29;;;8.16;36.12
47082;BME280;33066;49.296;14.470;2023-11-22T05:25:42;97444.51;;;8.36;36.11
47082;BME280;33066;49.296;14.470;2023-11-22T05:28:08;97443.97;;;8.02;36.18
47082;BME280;33066;49.296;14.470;2023-11-22T05:30:33;97445.05;;;8.05;36.40
47082;BME280;33066;49.296;14.470;2023-11-22T05:32:58;97448.56;;;8.52;36.36
47082;BME280;33066;49.296;14.470;2023-11-22T05:35:23;97448.51;;;8.47;36.13
47082;BME280;33066;49.296;14.470;2023-11-22T05:37:49;97450.74;;;8.59;35.85
47082;BME280;33066;49.296;14.470;2023-11-22T05:40:14;97452.69;;;8.55;35.85
47082;BME280;33066;49.296;14.470;2023-11-22T05:42:41;97457.27;;;8.45;35.85
47082;BME280;33066;49.296;14.470;2023-11-22T05:45:06;97465.55;;;8.46;35.94
47082;BME280;33066;49.296;14.470;2023-11-22T05:47:30;97461.99;;;8.49;35.94
47082;BME280;33066;49.296;14.470;2023-11-22T05:49:56;97459.28;;;8.55;35.49
47082;BME280;33066;49.296;14.470;2023-11-22T05:52:21;97467.35;;;8.36;35.59
47082;BME280;33066;49.296;14.470;2023-11-22T05:54:47;97471.69;;;8.56;35.26
47082;BME280;33066;49.296;14.470;2023-11-22T05:57:11;97476.40;;;8.40;34.99
47082;BME280;33066;49.296;14.470;2023-11-22T05:59:37;97479.15;;;8.41;34.93
47082;BME280;33066;49.296;14.470;2023-11-22T06:02:02;97484.14;;;8.41;34.85
47082;BME280;33066;49.296;14.470;2023-11-22T06:04:28;97495.68;;;8.39;34.79
47082;BME280;33066;49.296;14.470;2023-11-22T06:06:53;97501.51;;;8.69;34.52
47082;BME280;33066;49.296;14.470;2023-11-22T06:09:19;97500.53;;;7.92;34.54
47082;BME280;33066;49.296;14.470;2023-11-22T06:11:44;97498.98;;;9.14;33.61
47082;BME280;33066;49.296;14.470;2023-11-22T06:14:10;97501.08;;;8.97;33.65
47082;BME280;33066;49.296;14.470;2023-11-22T06:16:35;97511.53;;;9.19;33.89
47082;BME280;33066;49.296;14.470;2023-11-22T06:19:01;97514.29;;;8.74;33.77
47082;BME280;33066;49.296;14.470;2023-11-22T06:21:27;97523.73;;;8.50;33.99
47082;BME280;33066;49.296;14.470;2023-11-22T06:23:51;97523.94;;;8.84;34.00
47082;BME280;33066;49.296;14.470;2023-11-22T06:26:17;97529.62;;;8.60;34.32
47082;BME280;33066;49.296;14.470;2023-11-22T06:28:43;97532.18;;;8.42;34.55
47082;BME280;33066;49.296;14.470;2023-11-22T06:31:08;97538.83;;;8.43;34.63
47082;BME280;33066;49.296;14.470;2023-11-22T06:33:33;97541.76;;;8.42;34.61
47082;BME280;33066;49.296;14.470;2023-11-22T06:35:58;97540.67;;;8.41;34.36
47082;BME280;33066;49.296;14.470;2023-11-22T06:38:24;97543.08;;;8.28;34.24
47082;BME280;33066;49.296;14.470;2023-11-22T06:40:49;97543.26;;;8.36;34.31
47082;BME280;33066;49.296;14.470;2023-11-22T06:43:16;97549.30;;;8.53;34.39
47082;BME280;33066;49.296;14.470;2023-11-22T06:45:40;97550.63;;;8.71;34.73
47082;BME280;33066;49.296;14.470;2023-11-22T06:48:06;97556.85;;;8.49;34.38
47082;BME280;33066;49.296;14.470;2023-11-22T06:50:31;97563.58;;;8.71;34.44
47082;BME280;33066;49.296;14.470;2023-11-22T06:52:57;97564.51;;;8.72;34.32
47082;BME280;33066;49.296;14.470;2023-11-22T06:55:22;97563.32;;;8.85;34.43
47082;BME280;33066;49.296;14.470;2023-11-22T06:57:48;97567.05;;;8.81;34.20
47082;BME280;33066;49.296;14.470;2023-11-22T07:00:14;97570.45;;;8.96;34.30
47082;BME280;33066;49.296;14.470;2023-11-22T07:02:39;97575.84;;;8.89;34.04
47082;BME280;33066;49.296;14.470;2023-11-22T07:05:05;97582.70;;;9.01;33.78
47082;BME280;33066;49.296;14.470;2023-11-22T07:07:29;97582.10;;;8.91;33.71
47082;BME280;33066;49.296;14.470;2023-11-22T07:09:55;97584.82;;;9.07;34.05
47082;BME280;33066;49.296;14.470;2023-11-22T07:12:20;97588.51;;;8.67;34.14
47082;BME280;33066;49.296;14.470;2023-11-22T07:14:45;97595.96;;;8.54;34.12
47082;BME280;33066;49.296;14.470;2023-11-22T07:17:10;97601.67;;;8.54;34.32
47082;BME280;33066;49.296;14.470;2023-11-22T07:19:37;97592.67;;;8.78;34.54
47082;BME280;33066;49.296;14.470;2023-11-22T07:22:02;97584.34;;;8.80;34.54
47082;BME280;33066;49.296;14.470;2023-11-22T07:24:26;97586.89;;;8.65;34.40
47082;BME280;33066;49.296;14.470;2023-11-22T07:26:52;97598.43;;;8.38;34.35
47082;BME280;33066;49.296;14.470;2023-11-22T07:29:17;97601.92;;;8.53;34.73
47082;BME280;33066;49.296;14.470;2023-11-22T07:31:44;97600.07;;;8.65;34.79
47082;BME280;33066;49.296;14.470;2023-11-22T07:34:08;97595.17;;;8.87;34.43
47082;BME280;33066;49.296;14.470;2023-11-22T07:36:34;97599.58;;;8.89;34.26
47082;BME280;33066;49.296;14.470;2023-11-22T07:39:00;97610.95;;;8.76;34.07
47082;BME280;33066;49.296;14.470;2023-11-22T07:41:25;97619.71;;;8.94;34.03
47082;BME280;33066;49.296;14.470;2023-11-22T07:43:50;97626.31;;;9.06;34.06
47082;BME280;33066;49.296;14.470;2023-11-22T07:46:17;97627.95;;;9.18;34.02
47082;BME280;33066;49.296;14.470;2023-11-22T07:48:42;97622.38;;;9.32;33.53
47082;BME280;33066;49.296;14.470;2023-11-22T07:51:07;97619.93;;;8.94;33.64
47082;BME280;33066;49.296;14.470;2023-11-22T07:53:32;97621.20;;;9.17;33.41
47082;BME280;33066;49.296;14.470;2023-11-22T07:55:57;97620.70;;;8.99;33.53
47082;BME280;33066;49.296;14.470;2023-11-22T07:58:23;97620.33;;;9.04;33.29
47082;BME280;33066;49.296;14.470;2023-11-22T08:00:50;97617.62;;;9.13;33.35
47082;BME280;33066;49.296;14.470;2023-11-22T08:03:14;97618.92;;;9.10;33.84
47082;BME280;33066;49.296;14.470;2023-11-22T08:05:39;97624.67;;;8.98;34.10
47082;BME280;33066;49.296;14.470;2023-11-22T08:08:05;97637.64;;;8.94;34.44
47082;BME280;33066;49.296;14.470;2023-11-22T08:10:31;97640.77;;;8.50;34.95
47082;BME280;33066;49.296;14.470;2023-11-22T08:12:55;97644.53;;;8.63;35.26
47082;BME280;33066;49.296;14.470;2023-11-22T08:15:21;97645.91;;;8.39;35.38
47082;BME280;33066;49.296;14.470;2023-11-22T08:17:46;97641.54;;;8.71;35.22
47082;BME280;33066;49.296;14.470;2023-11-22T08:20:12;97639.80;;;8.53;35.04
47082;BME280;33066;49.296;14.470;2023-11-22T08:22:37;97651.27;;;8.48;35.18
47082;BME280;33066;49.296;14.470;2023-11-22T08:25:03;97656.96;;;8.18;34.96
47082;BME280;33066;49.296;14.470;2023-11-22T08:27:28;97664.85;;;8.43;35.04
47082;BME280;33066;49.296;14.470;2023-11-22T08:29:53;97681.35;;;8.10;34.92
47082;BME280;33066;49.296;14.470;2023-11-22T08:32:19;97691.42;;;8.35;35.18
47082;BME280;33066;49.296;14.470;2023-11-22T08:34:44;97696.93;;;8.22;34.93
47082;BME280;33066;49.296;14.470;2023-11-22T08:37:10;97684.87;;;8.14;35.04
47082;BME280;33066;49.296;14.470;2023-11-22T08:39:37;97681.80;;;8.45;34.97
47082;BME280;33066;49.296;14.470;2023-11-22T08:42:01;97682.23;;;8.20;35.02
47082;BME280;33066;49.296;14.470;2023-11-22T08:44:28;97671.65;;;8.60;35.16
47082;BME280;33066;49.296;14.470;2023-11-22T08:46:52;97661.45;;;8.63;35.05
47082;BME280;33066;49.296;14.470;2023-11-22T08:49:18;97658.84;;;9.13;34.71
47082;BME280;33066;49.296;14.470;2023-11-22T08:51:43;97654.57;;;9.29;34.60
47082;BME280;33066;49.296;14.470;2023-11-22T08:54:09;97657.52;;;9.17;34.76
47082;BME280;33066;49.296;14.470;2023-11-22T08:56:34;97668.74;;;9.38;34.26
47082;BME280;33066;49.296;14.470;2023-11-22T08:59:00;97689.65;;;9.44;34.46
47082;BME280;33066;49.296;14.470;2023-11-22T09:01:25;97717.09;;;8.96;33.93
47082;BME280;33066;49.296;14.470;2023-11-22T09:03:51;97732.97;;;8.64;34.16
47082;BME280;33066;49.296;14.470;2023-11-22T09:06:16;97738.98;;;9.04;34.08
47082;BME280;33066;49.296;14.470;2023-11-22T09:08:41;97735.43;;;8.65;34.02
47082;BME280;33066;49.296;14.470;2023-11-22T09:11:06;97736.78;;;8.91;34.26
47082;BME280;33066;49.296;14.470;2023-11-22T09:13:33;97748.13;;;8.73;34.19
47082;BME280;33066;49.296;14.470;2023-11-22T09:15:58;97750.47;;;9.00;34.16
47082;BME280;33066;49.296;14.470;2023-11-22T09:18:23;97745.66;;;8.68;34.06
47082;BME280;33066;49.296;14.470;2023-11-22T09:20:48;97749.92;;;8.68;34.21
47082;BME280;33066;49.296;14.470;2023-11-22T09:23:14;97750.33;;;8.98;34.26
47082;BME280;33066;49.296;14.470;2023-11-22T09:25:39;97745.14;;;8.65;34.12
47082;BME280;33066;49.296;14.470;2023-11-22T09:28:05;97738.10;;;8.96;34.15
47082;BME280;33066;49.296;14.470;2023-11-22T09:30:31;97743.37;;;9.05;33.91
47082;BME280;33066;49.296;14.470;2023-11-22T09:32:55;97749.69;;;8.88;33.95
47082;BME280;33066;49.296;14.470;2023-11-22T09:35:21;97752.05;;;8.81;33.93
47082;BME280;33066;49.296;14.470;2023-11-22T09:37:49;97749.49;;;9.06;33.95
47082;BME280;33066;49.296;14.470;2023-11-22T09:40:13;97753.72;;;9.25;33.81
47082;BME280;33066;49.296;14.470;2023-11-22T09:42:38;97753.83;;;9.07;34.01
47082;BME280;33066;49.296;14.470;2023-11-22T09:45:05;97751.33;;;9.00;33.93
47082;BME280;33066;49.296;14.470;2023-11-22T09:47:33;97748.69;;;8.90;33.96
47082;BME280;33066;49.296;14.470;2023-11-22T09:49:56;97745.92;;;8.71;34.13
47082;BME280;33066;49.296;14.470;2023-11-22T09:52:24;97750.21;;;8.85;34.55
47082;BME280;33066;49.296;14.470;2023-11-22T09:54:46;97748.83;;;8.52;34.67
47082;BME280;33066;49.296;14.470;2023-11-22T09:57:11;97758.42;;;8.88;34.79
47082;BME280;33066;49.296;14.470;2023-11-22T09:59:40;97764.96;;;8.82;34.59
47082;BME280;33066;49.296;14.470;2023-11-22T10:02:02;97766.92;;;9.08;34.36
47082;BME280;33066;49.296;14.470;2023-11-22T10:04:29;97768.30;;;9.21;34.06
47082;BME280;33066;49.296;14.470;2023-11-22T10:06:53;97761.41;;;9.32;34.17
47082;BME280;33066;49.296;14.470;2023-11-22T10:09:18;97761.88;;;9.36;34.05
47082;BME280;33066;49.296;14.470;2023-11-22T10:11:43;97768.57;;;9.25;34.12
47082;BME280;33066;49.296;14.470;2023-11-22T10:14:09;97772.24;;;9.27;34.17
47082;BME280;33066;49.296;14.470;2023-11-22T10:16:34;97775.81;;;9.40;34.15
47082;BME280;33066;49.296;14.470;2023-11-22T10:19:00;97779.31;;;9.16;34.10
47082;BME280;33066;49.296;14.470;2023-11-22T10:21:27;97782.71;;;9.43;33.90
47082;BME280;33066;49.296;14.470;2023-11-22T10:23:54;97784.57;;;9.63;33.78
47082;BME280;33066;49.296;14.470;2023-11-22T10:26:15;97782.45;;;9.15;33.88
47082;BME280;33066;49.296;14.470;2023-11-22T10:28:41;97785.94;;;8.90;33.92
47082;BME280;33066;49.296;14.470;2023-11-22T10:31:07;97779.81;;;9.18;33.98
47082;BME280;33066;49.296;14.470;2023-11-22T10:33:31;97778.81;;;9.23;33.96
47082;BME280;33066;49.296;14.470;2023-11-22T10:35:57;97776.90;;;9.29;34.01
47082;BME280;33066;49.296;14.470;2023-11-22T10:38:22;97780.42;;;9.28;33.92
47082;BME280;33066;49.296;14.470;2023-11-22T10:40:47;97784.58;;;9.02;33.99
47082;BME280;33066;49.296;14.470;2023-11-22T10:43:13;97785.00;;;9.17;33.95
47082;BME280;33066;49.296;14.470;2023-11-22T10:45:40;97792.72;;;9.11;33.98
47082;BME280;33066;49.296;14.470;2023-11-22T10:48:04;97803.05;;;9.34;34.03
47082;BME280;33066;49.296;14.470;2023-11-22T10:50:29;97813.25;;;9.17;34.08
47082;BME280;33066;49.296;14.470;2023-11-22T10:52:57;97819.44;;;9.10;34.08
47082;BME280;33066;49.296;14.470;2023-11-22T10:55:21;97821.58;;;8.87;34.11
47082;BME280;33066;49.296;14.470;2023-11-22T10:57:46;97827.75;;;9.03;34.14
47082;BME280;33066;49.296;14.470;2023-11-22T11:00:12;97826.29;;;9.02;34.16
47082;BME280;33066;49.296;14.470;2023-11-22T11:02:40;97817.24;;;8.78;34.40
47082;BME280;33066;49.296;14.470;2023-11-22T11:05:05;97826.03;;;8.94;34.66
47082;BME280;33066;49.296;14.470;2023-11-22T11:07:30;97826.27;;;9.25;35.09
47082;BME280;33066;49.296;14.470;2023-11-22T11:09:53;97835.67;;;9.22;35.14
47082;BME280;33066;49.296;14.470;2023-11-22T11:12:17;97836.28;;;8.88;35.18
47082;BME280;33066;49.296;14.470;2023-11-22T11:14:43;97839.33;;;9.03;35.24
47082;BME280;33066;49.296;14.470;2023-11-22T11:17:08;97833.62;;;9.06;35.21
47082;BME280;33066;49.296;14.470;2023-11-22T11:19:34;97827.43;;;9.16;35.20
47082;BME280;33066;49.296;14.470;2023-11-22T11:21:59;97834.48;;;8.98;35.01
47082;BME280;33066;49.296;14.470;2023-11-22T11:24:24;97843.43;;;8.98;34.97
47082;BME280;33066;49.296;14.470;2023-11-22T11:26:49;97850.53;;;8.90;34.97
47082;BME280;33066;49.296;14.470;2023-11-22T11:29:29;97844.69;;;9.02;35.10
47082;BME280;33066;49.296;14.470;2023-11-22T11:31:42;97846.53;;;9.13;35.13
47082;BME280;33066;49.296;14.470;2023-11-22T11:34:06;97840.31;;;9.38;35.10
47082;BME280;33066;49.296;14.470;2023-11-22T11:36:32;97839.06;;;9.32;34.86
47082;BME280;33066;49.296;14.470;2023-11-22T11:38:58;97849.08;;;9.04;34.87
47082;BME280;33066;49.296;14.470;2023-11-22T11:41:27;97853.33;;;8.85;34.72
47082;BME280;33066;49.296;14.470;2023-11-22T11:43:48;97850.49;;;8.74;35.02
47082;BME280;33066;49.296;14.470;2023-11-22T11:46:15;97843.46;;;8.66;34.98
47082;BME280;33066;49.296;14.470;2023-11-22T11:48:44;97846.64;;;8.81;35.12
47082;BME280;33066;49.296;14.470;2023-11-22T11:51:04;97842.99;;;8.80;35.16
47082;BME280;33066;49.296;14.470;2023-11-22T11:53:30;97837.76;;;8.61;35.19
47082;BME280;33066;49.296;14.470;2023-11-22T11:55:56;97827.31;;;8.70;35.19
47082;BME280;33066;49.296;14.470;2023-11-22T11:58:21;97827.09;;;8.75;34.96
47082;BME280;33066;49.296;14.470;2023-11-22T12:00:46;97833.02;;;9.04;34.57
47082;BME280;33066;49.296;14.470;2023-11-22T12:03:13;97828.32;;;9.13;34.41
47082;BME280;33066;49.296;14.470;2023-11-22T12:05:37;97820.72;;;9.14;34.19
47082;BME280;33066;49.296;14.470;2023-11-22T12:08:02;97815.49;;;8.95;34.25
47082;BME280;33066;49.296;14.470;2023-11-22T12:10:28;97810.60;;;9.11;34.24
47082;BME280;33066;49.296;14.470;2023-11-22T12:12:53;97803.84;;;9.35;33.99
47082;BME280;33066;49.296;14.470;2023-11-22T12:15:20;97801.92;;;9.07;33.92
47082;BME280;33066;49.296;14.470;2023-11-22T12:17:44;97804.95;;;9.12;34.13
47082;BME280;33066;49.296;14.470;2023-11-22T12:20:13;97805.05;;;9.24;34.13
47082;BME280;33066;49.296;14.470;2023-11-22T12:22:34;97810.01;;;9.23;34.10
47082;BME280;33066;49.296;14.470;2023-11-22T12:25:00;97808.19;;;9.49;33.96
47082;BME280;33066;49.296;14.470;2023-11-22T12:27:25;97803.35;;;9.27;33.78
47082;BME280;33066;49.296;14.470;2023-11-22T12:29:51;97804.06;;;9.27;33.92
47082;BME280;33066;49.296;14.470;2023-11-22T12:32:16;97810.08;;;9.29;33.94
47082;BME280;33066;49.296;14.470;2023-11-22T12:34:41;97814.43;;;9.37;34.08
47082;BME280;33066;49.296;14.470;2023-11-22T12:37:07;97814.35;;;9.27;33.90
47082;BME280;33066;49.296;14.470;2023-11-22T12:39:36;97821.95;;;9.31;33.99
47082;BME280;33066;49.296;14.470;2023-11-22T12:41:58;97820.11;;;9.33;33.87
47082;BME280;33066;49.296;14.470;2023-11-22T12:44:24;97822.92;;;9.30;33.97
47082;BME280;33066;49.296;14.470;2023-11-22T12:46:50;97825.94;;;9.62;34.03
47082;BME280;33066;49.296;14.470;2023-11-22T12:49:15;97823.57;;;9.64;33.97